Pompano Beach, FL

1:17 PM EDT on August 01, 2015 (GMT -0400)
Fort Lauderdale Executive | | Change Station
CLOSE
Current Station
Airport
Location: Fort Lauderdale,
Elevation: 13 ft
Nearby Weather Stations

Elev 13 ft 26.20 °N, 80.18 °W | Updated 24 minutes ago

Mostly Cloudy
Mostly Cloudy
90 °F
Feels Like 99 °F
N
13
Wind Variable Wind from SE

Today
High -- | Low -- °F
--% Chance of Precip.
Yesterday
High -- | Low -- °F
Precip. -- in
6:46 AM 8:07 PM
Full, 98% visible
Pressure 30.02 in
Visibility 10.0 miles
Clouds Scattered Clouds 3000 ft
Scattered Clouds 15000 ft
Mostly Cloudy 23000 ft
Heat Index 99 °F
Dew Point 74 °F
Humidity 59%
Rainfall 0.00 in
Snow Depth Not available.
UV 8 out of 12
Pollen 3.10 out of 12
Air Quality Not available.
Flu Activity Not available.
METAR KFXE 011653Z 14011KT 10SM SCT030 SCT150 BKN230 32/23 A3001 RMK AO2 SLP164 T03220233

More Conditions Fewer Conditions

Pressure 30.02 in
Visibility 10.0 miles
Clouds Scattered Clouds 3000 ft
Scattered Clouds 15000 ft
Mostly Cloudy 23000 ft
Heat Index 99 °F
Dew Point 74 °F
Humidity 59%
Rainfall 0.00 in
Snow Depth Not available.
UV 8 out of 12
Pollen 3.10 out of 12
Air Quality Not available.
Flu Activity Not available.
METAR KFXE 011653Z 14011KT 10SM SCT030 SCT150 BKN230 32/23 A3001 RMK AO2 SLP164 T03220233

More Conditions Fewer Conditions

10-Day Weather Forecast

×

Almanac

Astronomy

Aug. 01, 2015 Rise Set
Actual Time
Civil Twilight
Nautical Twilight
Astronomical Twilight
Moon
Length of Visible Light
Length of Day
Tomorrow will be .
, % of the Moon is Illuminated

Today's Extremes

State Highs State Lows

Community

WunderPhotos

Upload Photos

1,842,994 photos uploaded!

WunderBlogs® & News

Nearby

Air Quality

  Air Quality AQ Index Pollutant
Not available.

Snow Depth

Station Depth Elevation

Earthquake Activity

City Distance Mag. Time & Date
Minimum magnitude displayed is 2.5.

Coastal Water Temperatures

Place Temperature

Stations

Nearby Weather Stations

Station Location Temp. Windchill Dew Point Humidity Wind Precip. Elev Updated Type